sensor_id;sensor_type;location;lat;lon;timestamp;pressure;altitude;pressure_sealevel;temperature;humidity
79123;BME280;68526;44.600;26.032;2023-08-07T00:00:08;99296.28;;;21.66;57.46
79123;BME280;68526;44.600;26.032;2023-08-07T00:00:24;99297.91;;;21.64;56.98
79123;BME280;68526;44.600;26.032;2023-08-07T00:00:40;99294.72;;;21.65;56.76
79123;BME280;68526;44.600;26.032;2023-08-07T00:00:57;99302.66;;;21.67;56.86
79123;BME280;68526;44.600;26.032;2023-08-07T00:01:14;99296.72;;;21.65;56.70
79123;BME280;68526;44.600;26.032;2023-08-07T00:01:30;99299.91;;;21.63;56.61
79123;BME280;68526;44.600;26.032;2023-08-07T00:01:46;99295.91;;;21.64;56.87
79123;BME280;68526;44.600;26.032;2023-08-07T00:02:02;99298.31;;;21.62;56.94
79123;BME280;68526;44.600;26.032;2023-08-07T00:02:18;99299.13;;;21.63;57.01
79123;BME280;68526;44.600;26.032;2023-08-07T00:02:34;99299.13;;;21.63;57.08
79123;BME280;68526;44.600;26.032;2023-08-07T00:02:50;99301.91;;;21.63;56.75
79123;BME280;68526;44.600;26.032;2023-08-07T00:03:05;99292.34;;;21.64;57.09
79123;BME280;68526;44.600;26.032;2023-08-07T00:03:22;99294.75;;;21.62;56.82
79123;BME280;68526;44.600;26.032;2023-08-07T00:03:38;99295.97;;;21.60;57.08
79123;BME280;68526;44.600;26.032;2023-08-07T00:03:54;99297.53;;;21.62;56.79
79123;BME280;68526;44.600;26.032;2023-08-07T00:04:10;99299.59;;;21.57;56.79
79123;BME280;68526;44.600;26.032;2023-08-07T00:04:25;99300.31;;;21.62;56.69
79123;BME280;68526;44.600;26.032;2023-08-07T00:04:41;99302.75;;;21.59;56.72
79123;BME280;68526;44.600;26.032;2023-08-07T00:04:57;99298.75;;;21.60;56.87
79123;BME280;68526;44.600;26.032;2023-08-07T00:05:14;99298.41;;;21.58;56.67
79123;BME280;68526;44.600;26.032;2023-08-07T00:05:32;99308.34;;;21.59;56.81
79123;BME280;68526;44.600;26.032;2023-08-07T00:05:48;99309.13;;;21.60;57.00
79123;BME280;68526;44.600;26.032;2023-08-07T00:06:04;99308.72;;;21.58;56.96
79123;BME280;68526;44.600;26.032;2023-08-07T00:06:19;99309.53;;;21.58;56.96
79123;BME280;68526;44.600;26.032;2023-08-07T00:06:36;99317.50;;;21.56;56.81
79123;BME280;68526;44.600;26.032;2023-08-07T00:06:52;99315.50;;;21.57;56.87
79123;BME280;68526;44.600;26.032;2023-08-07T00:07:08;99311.94;;;21.56;56.74
79123;BME280;68526;44.600;26.032;2023-08-07T00:07:23;99320.69;;;21.58;56.85
79123;BME280;68526;44.600;26.032;2023-08-07T00:07:41;99321.47;;;21.59;57.13
79123;BME280;68526;44.600;26.032;2023-08-07T00:07:56;99317.16;;;21.54;56.87
79123;BME280;68526;44.600;26.032;2023-08-07T00:08:12;99318.72;;;21.55;56.82
79123;BME280;68526;44.600;26.032;2023-08-07T00:08:29;99317.94;;;21.55;56.98
79123;BME280;68526;44.600;26.032;2023-08-07T00:08:46;99328.22;;;21.58;57.23
79123;BME280;68526;44.600;26.032;2023-08-07T00:09:02;99320.69;;;21.58;57.08
79123;BME280;68526;44.600;26.032;2023-08-07T00:09:18;99321.47;;;21.59;56.76
79123;BME280;68526;44.600;26.032;2023-08-07T00:09:34;99322.31;;;21.56;56.92
79123;BME280;68526;44.600;26.032;2023-08-07T00:09:50;99327.88;;;21.56;57.38
79123;BME280;68526;44.600;26.032;2023-08-07T00:10:06;99321.09;;;21.57;57.21
79123;BME280;68526;44.600;26.032;2023-08-07T00:10:23;99323.88;;;21.57;57.14
79123;BME280;68526;44.600;26.032;2023-08-07T00:10:39;99324.31;;;21.55;57.10
79123;BME280;68526;44.600;26.032;2023-08-07T00:11:04;99325.88;;;21.56;57.69
79123;BME280;68526;44.600;26.032;2023-08-07T00:11:20;99325.88;;;21.56;57.29
79123;BME280;68526;44.600;26.032;2023-08-07T00:11:36;99330.31;;;21.54;57.30
79123;BME280;68526;44.600;26.032;2023-08-07T00:11:51;99331.13;;;21.51;57.37
79123;BME280;68526;44.600;26.032;2023-08-07T00:12:07;99331.09;;;21.54;57.11
79123;BME280;68526;44.600;26.032;2023-08-07T00:12:24;99334.66;;;21.55;57.02
79123;BME280;68526;44.600;26.032;2023-08-07T00:12:40;99333.50;;;21.52;57.05
79123;BME280;68526;44.600;26.032;2023-08-07T00:12:56;99330.72;;;21.52;57.08
79123;BME280;68526;44.600;26.032;2023-08-07T00:13:12;99340.66;;;21.53;57.17
79123;BME280;68526;44.600;26.032;2023-08-07T00:13:27;99330.34;;;21.50;57.00
79123;BME280;68526;44.600;26.032;2023-08-07T00:13:43;99331.13;;;21.51;57.20
79123;BME280;68526;44.600;26.032;2023-08-07T00:13:59;99335.47;;;21.52;57.25
79123;BME280;68526;44.600;26.032;2023-08-07T00:14:16;99335.13;;;21.50;57.16
79123;BME280;68526;44.600;26.032;2023-08-07T00:14:32;99340.28;;;21.51;57.28
79123;BME280;68526;44.600;26.032;2023-08-07T00:14:48;99333.97;;;21.47;57.66
79123;BME280;68526;44.600;26.032;2023-08-07T00:15:06;99338.34;;;21.48;57.08
79123;BME280;68526;44.600;26.032;2023-08-07T00:15:22;99339.94;;;21.46;57.27
79123;BME280;68526;44.600;26.032;2023-08-07T00:15:38;99331.59;;;21.46;57.21
79123;BME280;68526;44.600;26.032;2023-08-07T00:15:56;99338.38;;;21.45;57.14
79123;BME280;68526;44.600;26.032;2023-08-07T00:16:12;99323.31;;;21.39;57.03
79123;BME280;68526;44.600;26.032;2023-08-07T00:16:28;99331.25;;;21.40;56.98
79123;BME280;68526;44.600;26.032;2023-08-07T00:16:44;99336.78;;;21.44;57.28
79123;BME280;68526;44.600;26.032;2023-08-07T00:17:00;99340.00;;;21.42;57.34
79123;BME280;68526;44.600;26.032;2023-08-07T00:17:16;99340.78;;;21.43;57.27
79123;BME280;68526;44.600;26.032;2023-08-07T00:17:32;99336.78;;;21.44;57.29
79123;BME280;68526;44.600;26.032;2023-08-07T00:17:48;99334.88;;;21.41;57.11
79123;BME280;68526;44.600;26.032;2023-08-07T00:18:04;99336.00;;;21.43;57.15
79123;BME280;68526;44.600;26.032;2023-08-07T00:18:20;99336.44;;;21.42;57.44
79123;BME280;68526;44.600;26.032;2023-08-07T00:18:36;99331.25;;;21.40;57.35
79123;BME280;68526;44.600;26.032;2023-08-07T00:18:51;99331.25;;;21.40;57.52
79123;BME280;68526;44.600;26.032;2023-08-07T00:19:11;99330.47;;;21.40;57.50
79123;BME280;68526;44.600;26.032;2023-08-07T00:19:28;99329.69;;;21.39;57.84
79123;BME280;68526;44.600;26.032;2023-08-07T00:19:44;99330.47;;;21.40;58.16
79123;BME280;68526;44.600;26.032;2023-08-07T00:20:00;99332.91;;;21.38;57.80
79123;BME280;68526;44.600;26.032;2023-08-07T00:20:16;99333.69;;;21.38;57.50
79123;BME280;68526;44.600;26.032;2023-08-07T00:20:31;99334.47;;;21.39;58.15
79123;BME280;68526;44.600;26.032;2023-08-07T00:20:47;99323.31;;;21.39;57.69
79123;BME280;68526;44.600;26.032;2023-08-07T00:21:03;99323.31;;;21.39;57.82
79123;BME280;68526;44.600;26.032;2023-08-07T00:21:19;99331.69;;;21.39;57.55
79123;BME280;68526;44.600;26.032;2023-08-07T00:21:34;99330.91;;;21.38;57.40
79123;BME280;68526;44.600;26.032;2023-08-07T00:21:53;99328.91;;;21.39;57.21
79123;BME280;68526;44.600;26.032;2023-08-07T00:22:09;99326.53;;;21.37;57.45
79123;BME280;68526;44.600;26.032;2023-08-07T00:22:24;99332.91;;;21.38;57.44
79123;BME280;68526;44.600;26.032;2023-08-07T00:22:40;99334.53;;;21.35;57.38
79123;BME280;68526;44.600;26.032;2023-08-07T00:22:56;99326.97;;;21.36;57.83
79123;BME280;68526;44.600;26.032;2023-08-07T00:23:12;99334.13;;;21.33;57.71
79123;BME280;68526;44.600;26.032;2023-08-07T00:23:28;99328.97;;;21.35;57.85
79123;BME280;68526;44.600;26.032;2023-08-07T00:23:44;99332.56;;;21.32;57.73
79123;BME280;68526;44.600;26.032;2023-08-07T00:24:00;99329.47;;;21.23;57.76
79123;BME280;68526;44.600;26.032;2023-08-07T00:24:16;99331.00;;;21.27;57.68
79123;BME280;68526;44.600;26.032;2023-08-07T00:24:32;99331.78;;;21.28;57.68
79123;BME280;68526;44.600;26.032;2023-08-07T00:24:48;99325.44;;;21.27;57.90
79123;BME280;68526;44.600;26.032;2023-08-07T00:25:04;99332.56;;;21.28;57.92
79123;BME280;68526;44.600;26.032;2023-08-07T00:25:21;99324.22;;;21.28;57.81
79123;BME280;68526;44.600;26.032;2023-08-07T00:25:37;99331.78;;;21.28;57.90
79123;BME280;68526;44.600;26.032;2023-08-07T00:25:53;99331.00;;;21.27;57.86
79123;BME280;68526;44.600;26.032;2023-08-07T00:26:08;99340.19;;;21.24;57.71
79123;BME280;68526;44.600;26.032;2023-08-07T00:26:24;99322.75;;;21.20;58.05
79123;BME280;68526;44.600;26.032;2023-08-07T00:26:40;99336.22;;;21.25;57.89
79123;BME280;68526;44.600;26.032;2023-08-07T00:26:57;99333.84;;;21.24;58.03
79123;BME280;68526;44.600;26.032;2023-08-07T00:27:13;99326.28;;;21.24;58.17
79123;BME280;68526;44.600;26.032;2023-08-07T00:27:29;99329.41;;;21.26;58.22
79123;BME280;68526;44.600;26.032;2023-08-07T00:27:45;99335.41;;;21.25;57.98
79123;BME280;68526;44.600;26.032;2023-08-07T00:28:01;99336.63;;;21.24;58.14
79123;BME280;68526;44.600;26.032;2023-08-07T00:28:16;99333.06;;;21.23;58.00
79123;BME280;68526;44.600;26.032;2023-08-07T00:28:32;99337.03;;;21.22;58.04
79123;BME280;68526;44.600;26.032;2023-08-07T00:28:49;99334.66;;;21.21;58.12
79123;BME280;68526;44.600;26.032;2023-08-07T00:29:05;99329.88;;;21.21;58.66
79123;BME280;68526;44.600;26.032;2023-08-07T00:29:20;99329.09;;;21.21;58.48
79123;BME280;68526;44.600;26.032;2023-08-07T00:29:36;99336.22;;;21.22;58.29
79123;BME280;68526;44.600;26.032;2023-08-07T00:29:52;99327.53;;;21.20;58.33
79123;BME280;68526;44.600;26.032;2023-08-07T00:30:09;99333.88;;;21.20;58.58
79123;BME280;68526;44.600;26.032;2023-08-07T00:30:25;99321.97;;;21.16;58.51
79123;BME280;68526;44.600;26.032;2023-08-07T00:30:42;99332.72;;;21.18;58.78
79123;BME280;68526;44.600;26.032;2023-08-07T00:30:59;99333.09;;;21.20;58.54
79123;BME280;68526;44.600;26.032;2023-08-07T00:31:15;99323.16;;;21.19;58.62
79123;BME280;68526;44.600;26.032;2023-08-07T00:31:30;99330.31;;;21.20;58.21
79123;BME280;68526;44.600;26.032;2023-08-07T00:31:46;99337.09;;;21.19;58.36
79123;BME280;68526;44.600;26.032;2023-08-07T00:32:03;99334.31;;;21.19;58.40
79123;BME280;68526;44.600;26.032;2023-08-07T00:32:19;99329.16;;;21.17;58.41
79123;BME280;68526;44.600;26.032;2023-08-07T00:32:35;99326.75;;;21.16;58.68
79123;BME280;68526;44.600;26.032;2023-08-07T00:32:51;99331.13;;;21.17;58.49
79123;BME280;68526;44.600;26.032;2023-08-07T00:33:07;99335.50;;;21.18;58.52
79123;BME280;68526;44.600;26.032;2023-08-07T00:33:23;99333.53;;;21.15;58.52
79123;BME280;68526;44.600;26.032;2023-08-07T00:33:38;99331.59;;;21.12;58.58
79123;BME280;68526;44.600;26.032;2023-08-07T00:33:55;99333.22;;;21.09;58.85
79123;BME280;68526;44.600;26.032;2023-08-07T00:34:11;99333.59;;;21.11;58.67
79123;BME280;68526;44.600;26.032;2023-08-07T00:34:27;99338.78;;;21.09;58.65
79123;BME280;68526;44.600;26.032;2023-08-07T00:34:42;99341.13;;;21.11;58.84
79123;BME280;68526;44.600;26.032;2023-08-07T00:34:58;99332.78;;;21.11;59.07
79123;BME280;68526;44.600;26.032;2023-08-07T00:35:14;99337.19;;;21.08;58.70
79123;BME280;68526;44.600;26.032;2023-08-07T00:35:30;99337.19;;;21.08;58.93
79123;BME280;68526;44.600;26.032;2023-08-07T00:35:46;99340.44;;;21.03;58.90
79123;BME280;68526;44.600;26.032;2023-08-07T00:36:03;99339.66;;;21.02;58.79
79123;BME280;68526;44.600;26.032;2023-08-07T00:36:19;99338.44;;;21.03;58.74
79123;BME280;68526;44.600;26.032;2023-08-07T00:36:34;99338.84;;;21.05;58.96
79123;BME280;68526;44.600;26.032;2023-08-07T00:36:50;99338.88;;;21.02;59.18
79123;BME280;68526;44.600;26.032;2023-08-07T00:37:06;99342.81;;;21.04;59.09
79123;BME280;68526;44.600;26.032;2023-08-07T00:37:23;99339.66;;;21.02;59.17
79123;BME280;68526;44.600;26.032;2023-08-07T00:37:39;99345.22;;;21.02;58.98
79123;BME280;68526;44.600;26.032;2023-08-07T00:37:55;99346.00;;;21.03;58.78
79123;BME280;68526;44.600;26.032;2023-08-07T00:38:10;99346.84;;;21.00;59.08
79123;BME280;68526;44.600;26.032;2023-08-07T00:38:26;99340.06;;;21.01;59.43
79123;BME280;68526;44.600;26.032;2023-08-07T00:38:42;99340.50;;;20.99;59.53
79123;BME280;68526;44.600;26.032;2023-08-07T00:38:59;99340.88;;;21.01;59.24
79123;BME280;68526;44.600;26.032;2023-08-07T00:39:14;99339.66;;;21.02;59.13
79123;BME280;68526;44.600;26.032;2023-08-07T00:39:30;99342.84;;;21.01;59.26
79123;BME280;68526;44.600;26.032;2023-08-07T00:39:46;99347.63;;;21.00;59.18
79123;BME280;68526;44.600;26.032;2023-08-07T00:40:02;99346.44;;;21.01;59.45
79123;BME280;68526;44.600;26.032;2023-08-07T00:40:18;99339.28;;;21.00;59.76
79123;BME280;68526;44.600;26.032;2023-08-07T00:40:37;99343.31;;;20.96;59.72
79123;BME280;68526;44.600;26.032;2023-08-07T00:40:53;99349.66;;;20.96;59.54
79123;BME280;68526;44.600;26.032;2023-08-07T00:41:10;99347.25;;;20.98;59.44
79123;BME280;68526;44.600;26.032;2023-08-07T00:41:26;99346.09;;;20.96;59.48
79123;BME280;68526;44.600;26.032;2023-08-07T00:41:42;99344.13;;;20.93;59.67
79123;BME280;68526;44.600;26.032;2023-08-07T00:41:58;99348.09;;;20.95;59.71
79123;BME280;68526;44.600;26.032;2023-08-07T00:42:13;99351.66;;;20.96;59.43
79123;BME280;68526;44.600;26.032;2023-08-07T00:42:29;99342.94;;;20.94;59.55
79123;BME280;68526;44.600;26.032;2023-08-07T00:42:45;99342.16;;;20.93;59.55
79123;BME280;68526;44.600;26.032;2023-08-07T00:43:02;99350.88;;;20.95;59.48
79123;BME280;68526;44.600;26.032;2023-08-07T00:43:17;99349.66;;;20.96;59.41
79123;BME280;68526;44.600;26.032;2023-08-07T00:43:33;99346.50;;;20.94;59.46
79123;BME280;68526;44.600;26.032;2023-08-07T00:43:49;99346.50;;;20.94;59.32
79123;BME280;68526;44.600;26.032;2023-08-07T00:44:05;99343.31;;;20.96;59.58
79123;BME280;68526;44.600;26.032;2023-08-07T00:44:21;99348.91;;;20.92;59.55
79123;BME280;68526;44.600;26.032;2023-08-07T00:44:38;99346.53;;;20.91;59.60
79123;BME280;68526;44.600;26.032;2023-08-07T00:44:55;99353.28;;;20.93;60.01
79123;BME280;68526;44.600;26.032;2023-08-07T00:45:11;99351.28;;;20.94;59.73
79123;BME280;68526;44.600;26.032;2023-08-07T00:45:27;99350.13;;;20.91;59.63
79123;BME280;68526;44.600;26.032;2023-08-07T00:45:45;99348.91;;;20.92;59.83
79123;BME280;68526;44.600;26.032;2023-08-07T00:46:04;99348.16;;;20.88;59.99
79123;BME280;68526;44.600;26.032;2023-08-07T00:46:19;99345.38;;;20.88;60.10
79123;BME280;68526;44.600;26.032;2023-08-07T00:46:36;99344.97;;;20.90;59.76
79123;BME280;68526;44.600;26.032;2023-08-07T00:46:54;99353.31;;;20.90;59.87
79123;BME280;68526;44.600;26.032;2023-08-07T00:47:11;99358.09;;;20.89;59.77
79123;BME280;68526;44.600;26.032;2023-08-07T00:47:27;99356.09;;;20.90;59.93
79123;BME280;68526;44.600;26.032;2023-08-07T00:47:43;99356.91;;;20.87;59.95
79123;BME280;68526;44.600;26.032;2023-08-07T00:47:59;99357.75;;;20.84;59.96
79123;BME280;68526;44.600;26.032;2023-08-07T00:48:16;99361.75;;;20.83;59.98
79123;BME280;68526;44.600;26.032;2023-08-07T00:48:32;99352.19;;;20.84;60.02
79123;BME280;68526;44.600;26.032;2023-08-07T00:48:49;99349.41;;;20.84;60.04
79123;BME280;68526;44.600;26.032;2023-08-07T00:49:05;99352.56;;;20.86;59.96
79123;BME280;68526;44.600;26.032;2023-08-07T00:49:22;99350.97;;;20.85;59.95
79123;BME280;68526;44.600;26.032;2023-08-07T00:49:38;99349.41;;;20.84;60.18
79123;BME280;68526;44.600;26.032;2023-08-07T00:49:54;99357.38;;;20.82;60.14
79123;BME280;68526;44.600;26.032;2023-08-07T00:50:11;99352.19;;;20.84;59.95
79123;BME280;68526;44.600;26.032;2023-08-07T00:50:27;99355.78;;;20.80;60.14
79123;BME280;68526;44.600;26.032;2023-08-07T00:50:45;99355.78;;;20.80;60.27
79123;BME280;68526;44.600;26.032;2023-08-07T00:51:02;99353.00;;;20.80;60.68
79123;BME280;68526;44.600;26.032;2023-08-07T00:51:20;99349.81;;;20.82;60.56
79123;BME280;68526;44.600;26.032;2023-08-07T00:51:36;99355.41;;;20.82;60.60
79123;BME280;68526;44.600;26.032;2023-08-07T00:51:52;99362.53;;;20.83;60.27
79123;BME280;68526;44.600;26.032;2023-08-07T00:52:10;99356.66;;;20.74;60.23
79123;BME280;68526;44.600;26.032;2023-08-07T00:52:26;99360.22;;;20.74;60.62
79123;BME280;68526;44.600;26.032;2023-08-07T00:52:41;99356.63;;;20.77;60.45
79123;BME280;68526;44.600;26.032;2023-08-07T00:52:57;99350.28;;;20.77;60.54
79123;BME280;68526;44.600;26.032;2023-08-07T00:53:14;99360.19;;;20.78;60.52
79123;BME280;68526;44.600;26.032;2023-08-07T00:53:30;99355.06;;;20.73;60.23
79123;BME280;68526;44.600;26.032;2023-08-07T00:53:46;99358.28;;;20.71;60.55
79123;BME280;68526;44.600;26.032;2023-08-07T00:54:05;99354.72;;;20.71;60.73
79123;BME280;68526;44.600;26.032;2023-08-07T00:54:21;99364.63;;;20.72;60.80
79123;BME280;68526;44.600;26.032;2023-08-07T00:54:37;99355.84;;;20.73;60.73
79123;BME280;68526;44.600;26.032;2023-08-07T00:54:53;99357.06;;;20.72;60.71
79123;BME280;68526;44.600;26.032;2023-08-07T00:55:09;99361.47;;;20.70;60.92
79123;BME280;68526;44.600;26.032;2023-08-07T00:55:25;99369.81;;;20.70;60.90
79123;BME280;68526;44.600;26.032;2023-08-07T00:55:41;99365.84;;;20.71;60.90
79123;BME280;68526;44.600;26.032;2023-08-07T00:55:58;99366.22;;;20.69;60.92
79123;BME280;68526;44.600;26.032;2023-08-07T00:56:14;99359.09;;;20.68;61.19
79123;BME280;68526;44.600;26.032;2023-08-07T00:56:31;99361.09;;;20.68;60.83
79123;BME280;68526;44.600;26.032;2023-08-07T00:56:47;99368.63;;;20.67;60.95
79123;BME280;68526;44.600;26.032;2023-08-07T00:57:09;99363.50;;;20.66;61.03
79123;BME280;68526;44.600;26.032;2023-08-07T00:57:26;99365.50;;;20.65;61.40
79123;BME280;68526;44.600;26.032;2023-08-07T00:57:43;99368.63;;;20.67;61.07
79123;BME280;68526;44.600;26.032;2023-08-07T00:57:59;99368.63;;;20.67;61.18
79123;BME280;68526;44.600;26.032;2023-08-07T00:58:15;99366.22;;;20.69;61.14
79123;BME280;68526;44.600;26.032;2023-08-07T00:58:32;99365.84;;;20.67;60.93
79123;BME280;68526;44.600;26.032;2023-08-07T00:58:48;99370.63;;;20.67;61.18
79123;BME280;68526;44.600;26.032;2023-08-07T00:59:05;99364.69;;;20.65;61.25
79123;BME280;68526;44.600;26.032;2023-08-07T00:59:21;99364.69;;;20.65;61.09
79123;BME280;68526;44.600;26.032;2023-08-07T00:59:37;99370.63;;;20.67;61.13
79123;BME280;68526;44.600;26.032;2023-08-07T00:59:54;99359.13;;;20.65;61.08
79123;BME280;68526;44.600;26.032;2023-08-07T01:00:12;99365.50;;;20.62;61.13
79123;BME280;68526;44.600;26.032;2023-08-07T01:00:29;99372.25;;;20.64;61.07
79123;BME280;68526;44.600;26.032;2023-08-07T01:00:45;99375.44;;;20.63;61.23
79123;BME280;68526;44.600;26.032;2023-08-07T01:01:01;99360.34;;;20.64;61.56
79123;BME280;68526;44.600;26.032;2023-08-07T01:01:19;99368.72;;;20.60;61.26
79123;BME280;68526;44.600;26.032;2023-08-07T01:01:35;99365.09;;;20.63;61.61
79123;BME280;68526;44.600;26.032;2023-08-07T01:01:51;99363.16;;;20.60;61.49
79123;BME280;68526;44.600;26.032;2023-08-07T01:02:09;99363.16;;;20.60;61.45
79123;BME280;68526;44.600;26.032;2023-08-07T01:02:25;99369.53;;;20.57;61.53
79123;BME280;68526;44.600;26.032;2023-08-07T01:02:40;99364.78;;;20.58;61.53
79123;BME280;68526;44.600;26.032;2023-08-07T01:02:56;99366.34;;;20.59;61.41
79123;BME280;68526;44.600;26.032;2023-08-07T01:03:13;99367.16;;;20.56;61.62
79123;BME280;68526;44.600;26.032;2023-08-07T01:03:29;99358.88;;;20.52;61.87
79123;BME280;68526;44.600;26.032;2023-08-07T01:03:45;99360.81;;;20.51;61.76
79123;BME280;68526;44.600;26.032;2023-08-07T01:04:01;99366.00;;;20.53;61.86
79123;BME280;68526;44.600;26.032;2023-08-07T01:04:16;99361.66;;;20.52;61.86
79123;BME280;68526;44.600;26.032;2023-08-07T01:04:32;99360.03;;;20.54;61.95
79123;BME280;68526;44.600;26.032;2023-08-07T01:04:49;99358.88;;;20.52;62.21
79123;BME280;68526;44.600;26.032;2023-08-07T01:05:06;99366.38;;;20.51;62.02
79123;BME280;68526;44.600;26.032;2023-08-07T01:05:23;99359.69;;;20.45;61.96
79123;BME280;68526;44.600;26.032;2023-08-07T01:05:40;99361.66;;;20.48;61.72
79123;BME280;68526;44.600;26.032;2023-08-07T01:05:55;99363.66;;;20.48;61.89
79123;BME280;68526;44.600;26.032;2023-08-07T01:06:11;99361.25;;;20.50;61.88
79123;BME280;68526;44.600;26.032;2023-08-07T01:06:27;99360.47;;;20.49;61.99
79123;BME280;68526;44.600;26.032;2023-08-07T01:06:43;99362.81;;;20.51;61.88
79123;BME280;68526;44.600;26.032;2023-08-07T01:07:00;99354.09;;;20.49;61.89
79123;BME280;68526;44.600;26.032;2023-08-07T01:07:15;99354.50;;;20.44;62.08
79123;BME280;68526;44.600;26.032;2023-08-07T01:07:31;99361.28;;;20.43;62.07
79123;BME280;68526;44.600;26.032;2023-08-07T01:07:47;99358.50;;;20.39;62.21
79123;BME280;68526;44.600;26.032;2023-08-07T01:08:04;99351.72;;;20.44;62.18
79123;BME280;68526;44.600;26.032;2023-08-07T01:08:20;99354.50;;;20.44;62.04
79123;BME280;68526;44.600;26.032;2023-08-07T01:08:37;99352.94;;;20.43;62.11
79123;BME280;68526;44.600;26.032;2023-08-07T01:08:53;99360.06;;;20.44;62.12
79123;BME280;68526;44.600;26.032;2023-08-07T01:09:09;99356.91;;;20.45;61.84
79123;BME280;68526;44.600;26.032;2023-08-07T01:09:25;99365.25;;;20.45;61.91
79123;BME280;68526;44.600;26.032;2023-08-07T01:09:41;99359.31;;;20.47;61.98
79123;BME280;68526;44.600;26.032;2023-08-07T01:09:57;99355.31;;;20.44;61.99
79123;BME280;68526;44.600;26.032;2023-08-07T01:10:18;99361.28;;;20.43;62.17
79123;BME280;68526;44.600;26.032;2023-08-07T01:10:44;99359.28;;;20.43;62.20
79123;BME280;68526;44.600;26.032;2023-08-07T01:11:14;99354.50;;;20.44;62.26
79123;BME280;68526;44.600;26.032;2023-08-07T01:11:44;99357.72;;;20.42;62.38
79123;BME280;68526;44.600;26.032;2023-08-07T01:12:08;99359.34;;;20.40;62.29
79123;BME280;68526;44.600;26.032;2023-08-07T01:12:30;99356.13;;;20.41;62.16
79123;BME280;68526;44.600;26.032;2023-08-07T01:12:51;99350.19;;;20.39;62.56
79123;BME280;68526;44.600;26.032;2023-08-07T01:13:14;99356.16;;;20.38;62.41
79123;BME280;68526;44.600;26.032;2023-08-07T01:13:36;99355.00;;;20.35;62.58
79123;BME280;68526;44.600;26.032;2023-08-07T01:13:59;99353.00;;;20.36;62.64
79123;BME280;68526;44.600;26.032;2023-08-07T01:14:21;99359.78;;;20.35;62.53
79123;BME280;68526;44.600;26.032;2023-08-07T01:14:49;99360.94;;;20.34;62.81
79123;BME280;68526;44.600;26.032;2023-08-07T01:15:11;99362.16;;;20.33;62.61
79123;BME280;68526;44.600;26.032;2023-08-07T01:15:30;99363.72;;;20.34;62.47
79123;BME280;68526;44.600;26.032;2023-08-07T01:15:52;99361.00;;;20.30;62.64
79123;BME280;68526;44.600;26.032;2023-08-07T01:16:15;99366.13;;;20.32;62.60
79123;BME280;68526;44.600;26.032;2023-08-07T01:16:37;99371.75;;;20.28;62.78
79123;BME280;68526;44.600;26.032;2023-08-07T01:17:02;99366.97;;;20.28;62.82
79123;BME280;68526;44.600;26.032;2023-08-07T01:17:22;99365.38;;;20.27;62.83
79123;BME280;68526;44.600;26.032;2023-08-07T01:17:38;99366.56;;;20.30;62.86
79123;BME280;68526;44.600;26.032;2023-08-07T01:17:56;99373.31;;;20.29;62.76
79123;BME280;68526;44.600;26.032;2023-08-07T01:18:13;99367.75;;;20.29;63.00
79123;BME280;68526;44.600;26.032;2023-08-07T01:18:29;99363.78;;;20.26;63.08
79123;BME280;68526;44.600;26.032;2023-08-07T01:18:46;99369.75;;;20.28;62.87
79123;BME280;68526;44.600;26.032;2023-08-07T01:19:04;99366.56;;;20.26;63.03
79123;BME280;68526;44.600;26.032;2023-08-07T01:19:25;99365.78;;;20.26;62.89
79123;BME280;68526;44.600;26.032;2023-08-07T01:19:44;99367.00;;;20.25;62.95
79123;BME280;68526;44.600;26.032;2023-08-07T01:20:01;99359.84;;;20.24;63.03
79123;BME280;68526;44.600;26.032;2023-08-07T01:20:18;99367.00;;;20.25;63.38
79123;BME280;68526;44.600;26.032;2023-08-07T01:20:34;99365.41;;;20.24;63.29
79123;BME280;68526;44.600;26.032;2023-08-07T01:20:50;99365.41;;;20.24;63.13
79123;BME280;68526;44.600;26.032;2023-08-07T01:21:06;99361.44;;;20.25;62.97
79123;BME280;68526;44.600;26.032;2023-08-07T01:21:22;99359.44;;;20.25;63.21
79123;BME280;68526;44.600;26.032;2023-08-07T01:21:39;99368.19;;;20.24;63.23
79123;BME280;68526;44.600;26.032;2023-08-07T01:22:06;99357.44;;;20.26;63.12
79123;BME280;68526;44.600;26.032;2023-08-07T01:22:22;99361.81;;;20.27;63.01
79123;BME280;68526;44.600;26.032;2023-08-07T01:22:38;99360.63;;;20.28;63.29
79123;BME280;68526;44.600;26.032;2023-08-07T01:22:53;99363.84;;;20.23;63.25
79123;BME280;68526;44.600;26.032;2023-08-07T01:23:09;99354.28;;;20.24;63.52
79123;BME280;68526;44.600;26.032;2023-08-07T01:23:25;99364.63;;;20.23;63.41
79123;BME280;68526;44.600;26.032;2023-08-07T01:23:42;99361.06;;;20.23;63.36
79123;BME280;68526;44.600;26.032;2023-08-07T01:23:57;99362.28;;;20.18;63.69
79123;BME280;68526;44.600;26.032;2023-08-07T01:24:13;99364.63;;;20.20;63.21
79123;BME280;68526;44.600;26.032;2023-08-07T01:24:29;99364.25;;;20.18;63.67
79123;BME280;68526;44.600;26.032;2023-08-07T01:24:46;99367.84;;;20.18;63.53
79123;BME280;68526;44.600;26.032;2023-08-07T01:25:02;99359.13;;;20.16;63.43
79123;BME280;68526;44.600;26.032;2023-08-07T01:25:19;99360.69;;;20.17;63.40
79123;BME280;68526;44.600;26.032;2023-08-07T01:25:35;99363.47;;;20.17;63.50
79123;BME280;68526;44.600;26.032;2023-08-07T01:25:53;99368.63;;;20.15;63.55
79123;BME280;68526;44.600;26.032;2023-08-07T01:26:09;99368.25;;;20.17;63.74
79123;BME280;68526;44.600;26.032;2023-08-07T01:26:25;99374.97;;;20.16;63.62
79123;BME280;68526;44.600;26.032;2023-08-07T01:26:42;99361.13;;;20.09;63.56
79123;BME280;68526;44.600;26.032;2023-08-07T01:27:09;99371.81;;;20.17;63.73
79123;BME280;68526;44.600;26.032;2023-08-07T01:27:33;99369.47;;;20.12;63.65
79123;BME280;68526;44.600;26.032;2023-08-07T01:27:58;99367.84;;;20.15;63.64
79123;BME280;68526;44.600;26.032;2023-08-07T01:28:25;99369.84;;;20.14;63.92